Time;durP1;ratioP1;P1;durP2;ratioP2;P2;SDS_P1;SDS_P2;PMS_P1;PMS_P2;Temp;Humidity;BMP_temperature;BMP_pressure;BME280_temperature;BME280_humidity;BME280_pressure;Samples;Min_cycle;Max_cycle;Signal;HPM_P1;HPM_P2
2022/03/19 00:00:09;;;;;;;22.15;8.52;;;;;;;;;;5028593;28;20041;-55
2022/03/19 00:02:35;;;;;;;14.60;7.40;;;;;;;;;;5028228;28;20021;-56
2022/03/19 00:05:01;;;;;;;19.80;7.93;;;;;;;;;;5029204;28;20535;-56
2022/03/19 00:07:27;;;;;;;18.08;8.15;;;;;;;;;;5029046;28;20048;-56
2022/03/19 00:09:53;;;;;;;19.58;7.85;;;;;;;;;;5028731;28;20048;-57
2022/03/19 00:12:20;;;;;;;15.85;6.43;;;;;;;;;;5028605;28;20422;-56
2022/03/19 00:14:46;;;;;;;15.23;7.35;;;;;;;;;;5028573;28;20031;-53
2022/03/19 00:17:12;;;;;;;17.90;6.82;;;;;;;;;;5028159;28;20029;-54
2022/03/19 00:19:39;;;;;;;17.35;7.75;;;;;;;;;;5028276;28;20146;-56
2022/03/19 00:22:06;;;;;;;15.80;6.95;;;;;;;;;;5028479;28;20061;-57
2022/03/19 00:24:32;;;;;;;18.83;7.00;;;;;;;;;;5028280;28;20025;-57
2022/03/19 00:26:58;;;;;;;17.65;7.22;;;;;;;;;;5028335;28;20040;-56
2022/03/19 00:29:25;;;;;;;18.33;8.43;;;;;;;;;;5028121;28;20833;-56
2022/03/19 00:31:51;;;;;;;19.60;7.20;;;;;;;;;;5028174;28;20176;-54
2022/03/19 00:34:17;;;;;;;15.13;7.38;;;;;;;;;;5028904;28;20089;-57
2022/03/19 00:36:43;;;;;;;18.15;6.97;;;;;;;;;;5028865;28;20103;-56
2022/03/19 00:39:09;;;;;;;13.50;6.53;;;;;;;;;;5027504;28;20026;-55
2022/03/19 00:41:35;;;;;;;16.48;6.95;;;;;;;;;;5027999;28;20488;-57
2022/03/19 00:44:01;;;;;;;16.85;7.53;;;;;;;;;;5027810;28;20052;-57
2022/03/19 00:46:27;;;;;;;15.05;7.05;;;;;;;;;;5027433;28;20403;-57
2022/03/19 00:48:53;;;;;;;17.45;6.90;;;;;;;;;;5027963;28;20105;-53
2022/03/19 00:51:19;;;;;;;15.73;7.20;;;;;;;;;;5028476;28;20032;-54
2022/03/19 00:53:45;;;;;;;15.43;6.75;;;;;;;;;;5028359;28;20140;-56
2022/03/19 00:56:11;;;;;;;14.35;5.90;;;;;;;;;;5028286;28;20018;-54
2022/03/19 00:58:37;;;;;;;14.43;6.75;;;;;;;;;;5028178;28;20392;-56
2022/03/19 01:01:04;;;;;;;16.38;7.20;;;;;;;;;;5028111;28;20036;-56
2022/03/19 01:03:30;;;;;;;12.82;7.15;;;;;;;;;;5027834;28;20530;-54
2022/03/19 01:05:56;;;;;;;14.23;5.97;;;;;;;;;;5027919;28;20060;-56
2022/03/19 01:08:22;;;;;;;19.70;6.30;;;;;;;;;;5027878;28;20060;-57
2022/03/19 01:10:48;;;;;;;13.68;6.10;;;;;;;;;;5022478;28;20551;-53
2022/03/19 01:13:14;;;;;;;14.35;6.68;;;;;;;;;;5010998;28;20081;-58
2022/03/19 01:15:40;;;;;;;13.50;6.22;;;;;;;;;;5028138;28;20404;-57
2022/03/19 01:18:06;;;;;;;16.02;5.97;;;;;;;;;;5028327;28;20068;-58
2022/03/19 01:20:33;;;;;;;13.38;6.03;;;;;;;;;;5027707;28;20053;-58
2022/03/19 01:22:59;;;;;;;15.65;6.22;;;;;;;;;;5027776;28;20552;-56
2022/03/19 01:25:25;;;;;;;13.40;6.07;;;;;;;;;;5027572;28;20021;-54
2022/03/19 01:27:52;;;;;;;11.50;5.65;;;;;;;;;;5027963;28;20113;-54
2022/03/19 01:30:19;;;;;;;13.23;5.15;;;;;;;;;;5027828;28;20034;-55
2022/03/19 01:32:46;;;;;;;13.02;5.60;;;;;;;;;;5027844;28;20109;-53
2022/03/19 01:35:13;;;;;;;13.13;5.60;;;;;;;;;;5027031;28;20025;-55
2022/03/19 01:37:39;;;;;;;15.52;5.38;;;;;;;;;;5027213;28;20029;-55
2022/03/19 01:40:07;;;;;;;12.68;6.65;;;;;;;;;;5027175;28;20030;-57
2022/03/19 01:42:34;;;;;;;16.35;6.13;;;;;;;;;;5025388;28;20551;-57
2022/03/19 01:45:01;;;;;;;13.98;5.50;;;;;;;;;;5028209;28;20543;-58
2022/03/19 01:47:28;;;;;;;12.70;5.45;;;;;;;;;;5027679;28;20281;-55
2022/03/19 01:49:54;;;;;;;11.85;5.20;;;;;;;;;;5027094;28;20032;-55
2022/03/19 01:52:22;;;;;;;13.88;5.43;;;;;;;;;;5027846;28;20046;-52
2022/03/19 01:54:49;;;;;;;12.27;4.60;;;;;;;;;;5028047;28;20055;-53
2022/03/19 01:57:20;;;;;;;15.18;5.38;;;;;;;;;;5027734;28;20028;-52
2022/03/19 01:59:46;;;;;;;13.05;4.75;;;;;;;;;;5031472;28;20135;-57
2022/03/19 02:02:13;;;;;;;15.18;5.97;;;;;;;;;;5031066;28;20022;-53
2022/03/19 02:04:40;;;;;;;11.65;4.88;;;;;;;;;;5031293;28;20076;-52
2022/03/19 02:07:09;;;;;;;15.27;5.00;;;;;;;;;;5031137;28;20045;-49
2022/03/19 02:09:36;;;;;;;14.15;5.72;;;;;;;;;;5031142;28;20112;-53
2022/03/19 02:12:02;;;;;;;14.32;5.88;;;;;;;;;;5031395;28;20100;-56
2022/03/19 02:14:30;;;;;;;12.77;5.07;;;;;;;;;;5031621;28;20104;-54
2022/03/19 02:16:56;;;;;;;13.48;5.35;;;;;;;;;;5030480;28;20096;-57
2022/03/19 02:19:22;;;;;;;11.00;4.65;;;;;;;;;;5030783;28;20042;-58
2022/03/19 02:21:49;;;;;;;12.68;5.82;;;;;;;;;;5030644;28;20068;-54
2022/03/19 02:27:00;;;;;;;11.82;4.95;;;;;;;;;;5031408;28;20523;-58
2022/03/19 02:29:26;;;;;;;10.20;4.85;;;;;;;;;;5030860;28;20116;-56
2022/03/19 02:31:56;;;;;;;11.45;4.07;;;;;;;;;;5030491;28;20033;-57
2022/03/19 02:34:22;;;;;;;10.32;5.95;;;;;;;;;;5030671;28;20135;-56
2022/03/19 02:36:49;;;;;;;12.60;4.90;;;;;;;;;;5031407;28;20100;-57
2022/03/19 02:39:17;;;;;;;13.40;4.95;;;;;;;;;;5029975;28;20021;-55
2022/03/19 02:41:48;;;;;;;11.30;5.45;;;;;;;;;;5031020;28;20038;-58
2022/03/19 02:44:16;;;;;;;;;;;;;;;;;;5030817;28;20078;-56
2022/03/19 02:46:43;;;;;;;10.07;4.43;;;;;;;;;;5030716;28;19967;-54
2022/03/19 02:49:09;;;;;;;11.85;4.85;;;;;;;;;;5029941;28;20446;-54
2022/03/19 02:51:36;;;;;;;11.73;4.32;;;;;;;;;;5030430;28;20083;-55
2022/03/19 02:54:06;;;;;;;12.15;5.00;;;;;;;;;;5030102;28;20026;-53
2022/03/19 02:56:36;;;;;;;11.75;4.55;;;;;;;;;;5030433;28;20116;-56
2022/03/19 02:59:28;;;;;;;11.63;5.22;;;;;;;;;;5029943;28;20515;-56
2022/03/19 03:01:55;;;;;;;9.82;4.32;;;;;;;;;;5029144;28;20140;-56
2022/03/19 03:04:22;;;;;;;10.48;4.47;;;;;;;;;;5030243;28;20037;-54
2022/03/19 03:06:49;;;;;;;11.45;4.85;;;;;;;;;;5029982;28;20040;-54
2022/03/19 03:09:18;;;;;;;9.68;4.15;;;;;;;;;;5026286;28;20112;-52
2022/03/19 03:11:45;;;;;;;11.75;4.68;;;;;;;;;;5029661;28;20026;-54
2022/03/19 03:14:13;;;;;;;10.20;4.78;;;;;;;;;;5030009;28;20312;-57
2022/03/19 03:16:40;;;;;;;9.70;4.40;;;;;;;;;;5030441;28;20026;-54
2022/03/19 03:19:07;;;;;;;11.15;4.75;;;;;;;;;;5029676;28;20038;-52
2022/03/19 03:21:33;;;;;;;12.02;4.63;;;;;;;;;;5029965;28;20025;-54
2022/03/19 03:24:00;;;;;;;9.38;3.65;;;;;;;;;;5029784;28;20041;-56
2022/03/19 03:26:26;;;;;;;8.50;4.10;;;;;;;;;;5025002;28;20171;-52
2022/03/19 03:28:52;;;;;;;9.55;4.18;;;;;;;;;;5029570;28;20682;-54
2022/03/19 03:31:18;;;;;;;9.07;4.20;;;;;;;;;;5029825;28;20036;-52
2022/03/19 03:33:45;;;;;;;10.13;4.60;;;;;;;;;;5029361;28;20128;-54
2022/03/19 03:36:12;;;;;;;10.40;4.45;;;;;;;;;;5029213;28;20111;-55
2022/03/19 03:38:39;;;;;;;10.85;4.55;;;;;;;;;;5029009;28;20033;-55
2022/03/19 03:41:05;;;;;;;10.00;3.85;;;;;;;;;;5029341;28;20037;-56
2022/03/19 03:43:33;;;;;;;7.68;3.58;;;;;;;;;;5029661;28;20132;-54
2022/03/19 03:45:58;;;;;;;8.93;3.80;;;;;;;;;;5029065;28;20029;-51
2022/03/19 03:48:25;;;;;;;8.52;3.70;;;;;;;;;;5029457;28;20395;-54
2022/03/19 03:50:53;;;;;;;10.30;3.90;;;;;;;;;;5029233;28;20025;-54
2022/03/19 03:53:19;;;;;;;8.98;4.43;;;;;;;;;;5029209;28;20045;-56
2022/03/19 03:55:45;;;;;;;9.23;3.75;;;;;;;;;;5029360;28;20053;-54
2022/03/19 03:58:11;;;;;;;11.68;4.25;;;;;;;;;;5028725;28;20496;-55
2022/03/19 04:00:38;;;;;;;11.20;4.10;;;;;;;;;;5028795;28;20487;-55
2022/03/19 04:03:04;;;;;;;8.43;4.18;;;;;;;;;;5029226;28;20030;-52
2022/03/19 04:05:30;;;;;;;9.80;3.65;;;;;;;;;;5025746;28;20025;-54
2022/03/19 04:07:56;;;;;;;6.88;3.15;;;;;;;;;;5027517;28;20048;-57
2022/03/19 04:10:23;;;;;;;8.93;4.40;;;;;;;;;;5027147;28;20610;-50
2022/03/19 04:12:48;;;;;;;8.60;4.18;;;;;;;;;;5027686;28;20081;-51
2022/03/19 04:15:15;;;;;;;8.85;4.28;;;;;;;;;;5027170;28;20434;-51
2022/03/19 04:17:41;;;;;;;7.70;3.75;;;;;;;;;;5027504;28;20060;-53
2022/03/19 04:20:07;;;;;;;9.40;4.50;;;;;;;;;;5027079;28;20029;-51
2022/03/19 04:22:37;;;;;;;9.35;3.92;;;;;;;;;;5026054;28;20036;-50
2022/03/19 04:25:04;;;;;;;8.32;3.83;;;;;;;;;;5027165;28;20032;-48
2022/03/19 04:27:30;;;;;;;9.85;3.70;;;;;;;;;;5028138;28;20033;-47
2022/03/19 04:29:56;;;;;;;8.23;3.58;;;;;;;;;;5028813;28;20040;-51
2022/03/19 04:32:22;;;;;;;8.68;4.28;;;;;;;;;;5028708;28;20143;-50
2022/03/19 04:34:48;;;;;;;7.15;3.50;;;;;;;;;;5027986;28;20041;-49
2022/03/19 04:37:14;;;;;;;8.73;3.58;;;;;;;;;;5028209;28;20075;-54
2022/03/19 04:39:40;;;;;;;8.48;3.70;;;;;;;;;;5028462;28;20509;-51
2022/03/19 04:42:07;;;;;;;8.35;3.40;;;;;;;;;;5028682;28;20068;-50
2022/03/19 04:44:33;;;;;;;6.75;3.00;;;;;;;;;;5028802;28;20033;-51
2022/03/19 04:46:59;;;;;;;7.82;2.92;;;;;;;;;;5028064;28;20124;-52
2022/03/19 04:49:26;;;;;;;10.48;3.90;;;;;;;;;;5028785;28;20041;-50
2022/03/19 04:51:52;;;;;;;8.45;3.20;;;;;;;;;;5027875;28;20165;-53
2022/03/19 04:54:18;;;;;;;8.68;3.58;;;;;;;;;;5028308;28;20116;-47
2022/03/19 04:56:44;;;;;;;6.85;3.33;;;;;;;;;;5028572;28;20063;-55
2022/03/19 04:59:11;;;;;;;7.85;3.38;;;;;;;;;;5028775;28;20029;-55
2022/03/19 05:01:39;;;;;;;8.43;3.70;;;;;;;;;;5027947;28;20048;-55
2022/03/19 05:04:05;;;;;;;7.80;3.42;;;;;;;;;;5027575;28;20112;-55
2022/03/19 05:06:31;;;;;;;11.13;4.13;;;;;;;;;;5028398;28;20029;-56
2022/03/19 05:11:42;;;;;;;11.90;3.50;;;;;;;;;;5027808;28;20048;-56
2022/03/19 05:14:09;;;;;;;14.93;4.75;;;;;;;;;;5028217;28;20124;-55
2022/03/19 05:16:35;;;;;;;11.48;5.57;;;;;;;;;;5028089;28;20128;-56
2022/03/19 05:19:01;;;;;;;17.52;6.10;;;;;;;;;;5027773;28;20129;-54
2022/03/19 05:21:27;;;;;;;15.48;6.45;;;;;;;;;;5027831;28;20071;-56
2022/03/19 05:23:54;;;;;;;10.48;5.93;;;;;;;;;;5027802;28;20136;-56
2022/03/19 05:26:21;;;;;;;17.98;6.07;;;;;;;;;;5028452;28;20026;-55
2022/03/19 05:28:47;;;;;;;13.48;5.43;;;;;;;;;;5027796;28;20060;-52
2022/03/19 05:31:13;;;;;;;15.23;6.07;;;;;;;;;;5027895;28;20056;-54
2022/03/19 05:36:26;;;;;;;15.35;6.10;;;;;;;;;;5031777;28;20135;-54
2022/03/19 05:38:53;;;;;;;20.48;5.88;;;;;;;;;;5031373;28;20067;-55
2022/03/19 05:41:19;;;;;;;17.88;5.20;;;;;;;;;;5031225;28;20128;-53
2022/03/19 05:43:45;;;;;;;12.93;5.75;;;;;;;;;;5030620;28;20113;-53
2022/03/19 05:46:11;;;;;;;19.23;6.68;;;;;;;;;;5030519;28;20103;-55
2022/03/19 05:48:37;;;;;;;18.63;5.93;;;;;;;;;;5030623;28;20022;-52
2022/03/19 05:51:05;;;;;;;19.27;6.05;;;;;;;;;;5030731;28;20017;-52
2022/03/19 05:53:31;;;;;;;22.08;5.65;;;;;;;;;;5030548;28;20057;-52
2022/03/19 05:55:57;;;;;;;17.67;5.22;;;;;;;;;;5030403;28;20029;-55
2022/03/19 05:58:23;;;;;;;15.63;5.50;;;;;;;;;;5030723;28;20030;-56
2022/03/19 06:00:49;;;;;;;17.95;6.47;;;;;;;;;;5029989;28;20040;-56
2022/03/19 06:03:15;;;;;;;16.02;5.70;;;;;;;;;;5030818;28;20041;-56
2022/03/19 06:05:41;;;;;;;16.42;4.70;;;;;;;;;;5030568;28;20100;-55
2022/03/19 06:08:07;;;;;;;14.00;4.50;;;;;;;;;;5030382;28;20056;-56
2022/03/19 06:10:35;;;;;;;14.88;4.80;;;;;;;;;;5029901;28;20460;-53
2022/03/19 06:13:02;;;;;;;14.18;5.07;;;;;;;;;;5030058;28;20472;-54
2022/03/19 06:15:28;;;;;;;21.92;6.15;;;;;;;;;;5030180;28;20484;-54
2022/03/19 06:17:54;;;;;;;12.40;4.60;;;;;;;;;;5030127;28;20107;-56
2022/03/19 06:20:22;;;;;;;12.32;5.82;;;;;;;;;;5029942;28;20045;-52
2022/03/19 06:22:49;;;;;;;18.30;5.28;;;;;;;;;;5030052;28;20037;-54
2022/03/19 06:25:15;;;;;;;15.95;4.53;;;;;;;;;;5030077;28;20033;-53
2022/03/19 06:27:41;;;;;;;12.75;4.45;;;;;;;;;;5029991;28;20116;-53
2022/03/19 06:30:08;;;;;;;11.30;4.00;;;;;;;;;;5030519;28;20029;-56
2022/03/19 06:32:36;;;;;;;11.55;3.65;;;;;;;;;;5029566;28;20440;-56
2022/03/19 06:35:03;;;;;;;16.75;4.68;;;;;;;;;;5029607;28;20048;-53
2022/03/19 06:37:29;;;;;;;12.73;3.78;;;;;;;;;;5028299;28;20029;-56
2022/03/19 06:39:57;;;;;;;19.52;4.18;;;;;;;;;;5028691;28;20137;-51
2022/03/19 06:42:24;;;;;;;14.80;4.15;;;;;;;;;;5027897;28;20083;-56
2022/03/19 06:44:50;;;;;;;10.68;3.13;;;;;;;;;;5027440;28;20560;-56
2022/03/19 06:47:16;;;;;;;11.88;3.67;;;;;;;;;;5026603;28;20025;-57
2022/03/19 06:49:43;;;;;;;15.38;3.60;;;;;;;;;;5028758;28;20026;-57
2022/03/19 06:52:10;;;;;;;19.65;5.18;;;;;;;;;;5028441;28;20049;-56
2022/03/19 06:54:36;;;;;;;16.48;3.45;;;;;;;;;;5028300;28;20472;-55
2022/03/19 06:57:02;;;;;;;14.57;3.25;;;;;;;;;;5027768;28;20029;-54
2022/03/19 06:59:28;;;;;;;16.15;4.75;;;;;;;;;;5026681;28;20037;-51
2022/03/19 07:01:55;;;;;;;17.05;3.63;;;;;;;;;;5028477;28;20025;-55
2022/03/19 07:04:21;;;;;;;20.70;3.33;;;;;;;;;;5028088;28;20488;-57
2022/03/19 07:06:47;;;;;;;18.75;3.53;;;;;;;;;;5028105;28;20132;-57
2022/03/19 07:09:13;;;;;;;11.65;3.38;;;;;;;;;;5027867;28;20030;-52
2022/03/19 07:11:39;;;;;;;17.35;3.78;;;;;;;;;;5028065;28;20513;-55
2022/03/19 07:14:05;;;;;;;13.20;3.90;;;;;;;;;;5028304;28;20025;-52
2022/03/19 07:16:31;;;;;;;17.10;3.50;;;;;;;;;;5029368;28;20029;-53
2022/03/19 07:18:58;;;;;;;16.42;2.55;;;;;;;;;;5029011;28;20040;-54
2022/03/19 07:21:24;;;;;;;18.33;3.95;;;;;;;;;;5029721;28;20091;-55
2022/03/19 07:23:50;;;;;;;12.68;2.80;;;;;;;;;;5029235;28;20555;-53
2022/03/19 07:26:16;;;;;;;10.85;3.13;;;;;;;;;;5029901;28;20037;-54
2022/03/19 07:28:43;;;;;;;16.15;3.78;;;;;;;;;;5028752;28;20482;-53
2022/03/19 07:31:09;;;;;;;22.13;3.80;;;;;;;;;;5029672;28;20080;-55
2022/03/19 07:33:35;;;;;;;14.60;3.08;;;;;;;;;;5027638;28;20029;-56
2022/03/19 07:36:02;;;;;;;14.00;4.20;;;;;;;;;;5028348;28;20031;-54
2022/03/19 07:38:28;;;;;;;9.00;3.17;;;;;;;;;;5028370;28;20021;-50
2022/03/19 07:43:39;;;;;;;12.57;3.90;;;;;;;;;;5026156;28;20036;-53
2022/03/19 07:46:05;;;;;;;13.02;3.88;;;;;;;;;;5028757;28;20079;-53
2022/03/19 07:48:31;;;;;;;12.63;3.75;;;;;;;;;;5028343;28;20037;-50
2022/03/19 07:50:57;;;;;;;15.45;3.33;;;;;;;;;;5028649;28;20093;-54
2022/03/19 07:53:23;;;;;;;11.65;3.30;;;;;;;;;;5028380;28;20040;-52
2022/03/19 07:55:55;;;;;;;11.27;3.30;;;;;;;;;;5028453;28;20463;-54
2022/03/19 07:58:22;;;;;;;15.65;3.90;;;;;;;;;;5028817;28;20124;-54
2022/03/19 08:00:49;;;;;;;11.85;3.97;;;;;;;;;;5027549;28;20511;-56
2022/03/19 08:03:15;;;;;;;22.70;3.95;;;;;;;;;;5028160;28;20032;-55
2022/03/19 08:05:42;;;;;;;14.90;3.78;;;;;;;;;;5027256;28;20053;-56
2022/03/19 08:08:08;;;;;;;14.85;4.00;;;;;;;;;;5028226;28;20144;-56
2022/03/19 08:10:36;;;;;;;14.82;3.42;;;;;;;;;;5027256;28;20134;-56
2022/03/19 08:13:03;;;;;;;19.52;4.10;;;;;;;;;;5036692;28;20071;-52
2022/03/19 08:15:30;;;;;;;12.25;3.67;;;;;;;;;;5027141;28;20108;-53
2022/03/19 08:17:58;;;;;;;11.98;3.30;;;;;;;;;;5027603;28;20029;-56
2022/03/19 08:20:24;;;;;;;14.55;4.63;;;;;;;;;;5029291;28;20056;-55
2022/03/19 08:22:50;;;;;;;14.77;3.42;;;;;;;;;;5029654;28;20148;-56
2022/03/19 08:25:17;;;;;;;13.55;5.13;;;;;;;;;;5028080;28;20574;-54
2022/03/19 08:27:43;;;;;;;15.43;4.32;;;;;;;;;;5027685;28;20069;-54
2022/03/19 08:30:09;;;;;;;15.00;4.32;;;;;;;;;;5026209;28;20079;-55
2022/03/19 08:32:35;;;;;;;13.05;3.92;;;;;;;;;;5027116;28;20029;-50
2022/03/19 08:35:01;;;;;;;11.63;3.75;;;;;;;;;;5026733;28;20083;-52
2022/03/19 08:37:27;;;;;;;12.82;4.07;;;;;;;;;;5027631;28;20033;-52
2022/03/19 08:42:39;;;;;;;15.18;4.18;;;;;;;;;;5026911;28;20502;-57
2022/03/19 08:45:06;;;;;;;13.65;4.50;;;;;;;;;;5026616;28;20028;-54
2022/03/19 08:47:32;;;;;;;15.23;4.70;;;;;;;;;;5027038;28;20931;-56
2022/03/19 08:49:58;;;;;;;9.43;3.42;;;;;;;;;;5026607;28;20476;-54
2022/03/19 08:52:26;;;;;;;16.05;4.00;;;;;;;;;;5026458;28;20081;-55
2022/03/19 08:54:52;;;;;;;15.85;4.70;;;;;;;;;;5026278;28;20044;-56
2022/03/19 08:57:19;;;;;;;11.73;3.92;;;;;;;;;;5026288;28;20112;-56
2022/03/19 08:59:45;;;;;;;11.93;3.50;;;;;;;;;;5026406;28;20769;-57
2022/03/19 09:02:11;;;;;;;11.55;4.28;;;;;;;;;;5026609;28;20029;-56
2022/03/19 09:04:38;;;;;;;13.75;4.57;;;;;;;;;;5027019;28;20029;-55
2022/03/19 09:07:04;;;;;;;17.35;4.70;;;;;;;;;;5026225;28;20030;-55
2022/03/19 09:09:30;;;;;;;13.07;4.72;;;;;;;;;;5026845;28;20040;-56
2022/03/19 09:11:56;;;;;;;13.23;3.92;;;;;;;;;;5026703;28;20854;-54
2022/03/19 09:14:24;;;;;;;17.60;4.35;;;;;;;;;;5027495;28;20895;-57
2022/03/19 09:16:50;;;;;;;16.00;4.30;;;;;;;;;;5027042;28;20025;-55
2022/03/19 09:19:16;;;;;;;13.88;3.90;;;;;;;;;;5026727;28;20546;-57
2022/03/19 09:21:42;;;;;;;15.50;4.10;;;;;;;;;;5025555;28;20128;-57
2022/03/19 09:24:08;;;;;;;10.95;3.40;;;;;;;;;;5027640;28;20096;-53
2022/03/19 09:26:34;;;;;;;15.45;4.03;;;;;;;;;;5026846;28;20024;-52
2022/03/19 09:29:00;;;;;;;11.68;3.85;;;;;;;;;;5026369;28;20106;-55
2022/03/19 09:31:27;;;;;;;11.25;3.92;;;;;;;;;;5026463;28;20064;-56
2022/03/19 09:33:54;;;;;;;10.30;4.32;;;;;;;;;;5026686;28;20121;-55
2022/03/19 09:36:20;;;;;;;14.63;4.38;;;;;;;;;;5026600;28;20443;-57
2022/03/19 09:38:46;;;;;;;9.35;3.70;;;;;;;;;;5026900;28;20113;-56
2022/03/19 09:41:12;;;;;;;11.98;4.00;;;;;;;;;;5025974;28;20032;-56
2022/03/19 09:43:38;;;;;;;10.55;3.75;;;;;;;;;;5026922;28;20432;-57
2022/03/19 09:46:05;;;;;;;13.75;4.07;;;;;;;;;;5027197;28;20110;-57
2022/03/19 09:48:31;;;;;;;13.73;4.22;;;;;;;;;;5025959;28;20176;-57
2022/03/19 09:50:58;;;;;;;14.82;4.60;;;;;;;;;;5024822;28;20034;-57
2022/03/19 09:53:25;;;;;;;10.25;3.35;;;;;;;;;;5025722;28;20052;-56
2022/03/19 09:55:53;;;;;;;15.73;4.28;;;;;;;;;;5026930;28;20037;-52
2022/03/19 09:58:19;;;;;;;11.32;4.25;;;;;;;;;;5025625;28;20029;-55
2022/03/19 10:00:45;;;;;;;11.10;4.00;;;;;;;;;;5026352;28;20120;-56
2022/03/19 10:03:12;;;;;;;12.15;3.20;;;;;;;;;;5024544;28;20416;-54
2022/03/19 10:08:37;;;;;;;16.70;4.13;;;;;;;;;;5022756;28;20155;-56
2022/03/19 10:11:07;;;;;;;12.45;3.85;;;;;;;;;;5023942;28;20064;-55
2022/03/19 10:13:38;;;;;;;13.93;3.85;;;;;;;;;;5021537;28;20033;-56
2022/03/19 10:16:04;;;;;;;15.98;4.10;;;;;;;;;;5023768;28;20028;-56
2022/03/19 10:18:32;;;;;;;11.48;3.33;;;;;;;;;;5021119;28;20029;-55
2022/03/19 10:21:01;;;;;;;9.77;3.63;;;;;;;;;;5027880;28;20587;-53
2022/03/19 10:23:27;;;;;;;;;;;;;;;;;;5031040;28;20092;-56
2022/03/19 10:25:54;;;;;;;12.02;3.63;;;;;;;;;;5030639;28;20044;-56
2022/03/19 10:28:28;;;;;;;10.88;3.97;;;;;;;;;;5029969;28;20083;-56
2022/03/19 10:30:54;;;;;;;7.78;3.40;;;;;;;;;;5025256;28;20075;-55
2022/03/19 10:33:23;;;;;;;9.48;3.53;;;;;;;;;;5015720;28;20033;-53
2022/03/19 10:35:49;;;;;;;10.73;3.30;;;;;;;;;;5019851;28;20022;-56
2022/03/19 10:38:23;;;;;;;9.95;3.20;;;;;;;;;;5027018;28;20025;-55
2022/03/19 10:40:51;;;;;;;10.20;3.60;;;;;;;;;;5027870;28;20060;-56
2022/03/19 10:43:19;;;;;;;9.43;3.33;;;;;;;;;;5028094;28;20932;-55
2022/03/19 10:45:49;;;;;;;9.90;3.63;;;;;;;;;;5026155;28;20049;-56
2022/03/19 10:48:19;;;;;;;12.32;3.10;;;;;;;;;;5015413;28;20025;-56
2022/03/19 10:50:45;;;;;;;13.63;3.95;;;;;;;;;;5028313;28;20476;-55
2022/03/19 10:53:11;;;;;;;13.07;3.67;;;;;;;;;;5024467;28;20048;-53
2022/03/19 10:55:37;;;;;;;10.85;3.47;;;;;;;;;;5027964;28;20013;-51
2022/03/19 10:58:03;;;;;;;10.13;3.83;;;;;;;;;;5025716;28;20041;-54
2022/03/19 11:00:29;;;;;;;12.07;4.28;;;;;;;;;;5025663;28;20155;-56
2022/03/19 11:03:00;;;;;;;13.13;3.50;;;;;;;;;;5027869;28;20536;-53
2022/03/19 11:05:29;;;;;;;17.10;3.83;;;;;;;;;;5025584;28;20036;-55
2022/03/19 11:07:55;;;;;;;12.68;3.65;;;;;;;;;;5016983;28;20488;-56
2022/03/19 11:10:22;;;;;;;14.52;3.22;;;;;;;;;;5022673;28;20056;-55
2022/03/19 11:12:53;;;;;;;14.77;3.85;;;;;;;;;;5026858;28;20503;-56
2022/03/19 11:15:20;;;;;;;15.38;3.00;;;;;;;;;;5022454;28;20048;-55
2022/03/19 11:17:48;;;;;;;12.10;2.95;;;;;;;;;;5029340;28;20099;-55
2022/03/19 11:20:14;;;;;;;9.88;3.10;;;;;;;;;;5028578;28;20076;-54
2022/03/19 11:22:46;;;;;;;10.60;2.83;;;;;;;;;;5027600;28;20061;-60
2022/03/19 11:25:16;;;;;;;8.90;3.33;;;;;;;;;;5024252;28;20593;-57
2022/03/19 11:27:44;;;;;;;12.45;3.50;;;;;;;;;;5021651;28;20026;-58
2022/03/19 11:30:17;;;;;;;10.80;3.20;;;;;;;;;;5026987;28;20028;-58
2022/03/19 11:33:00;;;;;;;11.52;3.35;;;;;;;;;;5018179;28;20113;-58
2022/03/19 11:35:26;;;;;;;9.40;3.10;;;;;;;;;;5026336;28;20031;-57
2022/03/19 11:38:00;;;;;;;9.80;3.50;;;;;;;;;;5028298;28;20064;-57
2022/03/19 11:40:29;;;;;;;10.38;2.97;;;;;;;;;;5029104;28;20026;-59
2022/03/19 11:42:56;;;;;;;13.10;3.30;;;;;;;;;;5017475;28;20063;-57
2022/03/19 11:45:23;;;;;;;14.48;3.42;;;;;;;;;;5019605;28;20480;-57
2022/03/19 11:47:49;;;;;;;8.40;2.83;;;;;;;;;;5028013;28;20017;-58
2022/03/19 11:50:23;;;;;;;18.35;3.55;;;;;;;;;;5027440;28;20990;-57
2022/03/19 11:52:49;;;;;;;24.27;5.03;;;;;;;;;;5017422;28;20053;-56
2022/03/19 11:55:19;;;;;;;30.90;5.97;;;;;;;;;;5013533;28;20361;-55
2022/03/19 11:57:46;;;;;;;;;;;;;;;;;;5023644;28;20028;-57
2022/03/19 12:00:16;;;;;;;63.35;12.05;;;;;;;;;;5020297;28;19922;-57
2022/03/19 12:03:02;;;;;;;62.42;13.80;;;;;;;;;;5026651;28;20033;-57
2022/03/19 12:05:28;;;;;;;58.55;13.40;;;;;;;;;;5022092;28;20038;-57
2022/03/19 12:08:04;;;;;;;67.75;13.20;;;;;;;;;;5028300;28;20026;-58
2022/03/19 12:10:38;;;;;;;55.90;14.38;;;;;;;;;;5028380;28;20033;-58
2022/03/19 12:13:21;;;;;;;45.58;10.52;;;;;;;;;;5019870;28;20026;-55
2022/03/19 12:15:47;;;;;;;49.30;11.93;;;;;;;;;;5027692;28;20166;-58
2022/03/19 12:18:27;;;;;;;52.97;10.80;;;;;;;;;;5028174;28;20514;-57
2022/03/19 12:20:53;;;;;;;;;;;;;;;;;;5028190;28;20041;-54
2022/03/19 12:23:20;;;;;;;51.40;12.73;;;;;;;;;;5027418;28;20345;-54
2022/03/19 12:26:06;;;;;;;44.80;11.27;;;;;;;;;;5028643;28;20028;-55
2022/03/19 12:28:33;;;;;;;30.75;5.90;;;;;;;;;;5022648;28;20035;-55
2022/03/19 12:31:11;;;;;;;23.75;5.30;;;;;;;;;;5015882;28;20112;-58
2022/03/19 12:33:38;;;;;;;14.55;3.53;;;;;;;;;;5022694;28;20029;-57
2022/03/19 12:36:17;;;;;;;14.00;3.08;;;;;;;;;;5019796;28;20044;-57
2022/03/19 12:38:45;;;;;;;12.30;3.03;;;;;;;;;;5023159;28;20021;-55
2022/03/19 12:41:33;;;;;;;13.00;3.00;;;;;;;;;;5027300;28;20476;-55
2022/03/19 12:44:01;;;;;;;13.75;3.35;;;;;;;;;;5027108;28;20040;-57
2022/03/19 12:46:31;;;;;;;15.63;3.80;;;;;;;;;;5027748;28;20079;-55
2022/03/19 12:48:57;;;;;;;;;;;;;;;;;;5020550;28;20056;-57
2022/03/19 12:51:24;;;;;;;14.63;3.63;;;;;;;;;;5025750;28;19905;-57
2022/03/19 12:53:50;;;;;;;16.88;3.92;;;;;;;;;;5020669;28;20033;-56
2022/03/19 12:56:20;;;;;;;14.50;3.03;;;;;;;;;;5028040;28;20551;-65
2022/03/19 12:58:48;;;;;;;13.15;2.92;;;;;;;;;;5025749;28;20792;-56
2022/03/19 13:01:14;;;;;;;11.48;3.13;;;;;;;;;;5025283;28;20125;-57
2022/03/19 13:03:42;;;;;;;12.93;2.85;;;;;;;;;;5025871;28;20794;-57
2022/03/19 13:06:11;;;;;;;10.32;3.00;;;;;;;;;;5026815;28;20075;-58
2022/03/19 13:08:46;;;;;;;12.90;3.03;;;;;;;;;;5026238;28;20017;-57
2022/03/19 13:11:13;;;;;;;12.15;2.65;;;;;;;;;;5026782;28;20574;-57
2022/03/19 13:13:43;;;;;;;10.43;2.85;;;;;;;;;;5026933;28;20116;-57
2022/03/19 13:16:09;;;;;;;;;;;;;;;;;;5015924;28;20041;-56
2022/03/19 13:18:36;;;;;;;13.02;2.97;;;;;;;;;;5026048;28;19944;-57
2022/03/19 13:21:04;;;;;;;8.57;2.63;;;;;;;;;;5026000;28;20034;-55
2022/03/19 13:23:30;;;;;;;9.65;2.63;;;;;;;;;;5026722;28;20474;-57
2022/03/19 13:25:57;;;;;;;8.45;2.95;;;;;;;;;;5027265;28;20101;-55
2022/03/19 13:28:23;;;;;;;11.45;3.13;;;;;;;;;;5027550;28;20444;-52
2022/03/19 13:30:50;;;;;;;8.93;2.28;;;;;;;;;;5027471;28;20470;-57
2022/03/19 13:33:16;;;;;;;10.38;2.70;;;;;;;;;;5027374;28;20036;-57
2022/03/19 13:35:47;;;;;;;9.90;2.92;;;;;;;;;;5027744;28;20121;-57
2022/03/19 13:38:15;;;;;;;8.43;2.40;;;;;;;;;;5008047;28;20880;-58
2022/03/19 13:40:42;;;;;;;8.63;2.97;;;;;;;;;;5022237;28;20419;-57
2022/03/19 13:43:08;;;;;;;10.30;2.67;;;;;;;;;;5028209;28;20037;-58
2022/03/19 13:45:35;;;;;;;8.68;3.13;;;;;;;;;;5027163;28;20021;-56
2022/03/19 13:48:04;;;;;;;7.95;2.83;;;;;;;;;;5026909;28;20013;-57
2022/03/19 13:50:30;;;;;;;9.85;2.20;;;;;;;;;;5027853;28;20161;-58
2022/03/19 13:52:58;;;;;;;10.65;2.90;;;;;;;;;;5027349;28;20156;-56
2022/03/19 13:55:24;;;;;;;7.88;2.80;;;;;;;;;;5031186;28;20029;-56
2022/03/19 13:57:59;;;;;;;7.22;2.70;;;;;;;;;;5030972;28;20033;-56
2022/03/19 14:00:27;;;;;;;7.60;2.15;;;;;;;;;;5030670;28;20124;-57
2022/03/19 14:03:00;;;;;;;8.57;2.20;;;;;;;;;;5023867;28;20038;-57
2022/03/19 14:05:31;;;;;;;5.90;1.52;;;;;;;;;;5024403;28;20399;-57
2022/03/19 14:07:58;;;;;;;4.32;1.30;;;;;;;;;;5030970;28;20395;-56
2022/03/19 14:10:29;;;;;;;4.43;1.05;;;;;;;;;;5029665;28;20072;-57
2022/03/19 14:13:07;;;;;;;8.68;1.30;;;;;;;;;;5030336;28;20075;-57
2022/03/19 14:15:51;;;;;;;4.75;1.25;;;;;;;;;;5027171;28;20040;-58
2022/03/19 14:18:24;;;;;;;3.70;0.85;;;;;;;;;;5019239;28;20037;-57
2022/03/19 14:20:51;;;;;;;4.88;1.20;;;;;;;;;;5029294;28;20046;-57
2022/03/19 14:23:18;;;;;;;4.53;1.13;;;;;;;;;;5026442;28;20080;-55
2022/03/19 14:25:44;;;;;;;4.82;1.00;;;;;;;;;;5027655;28;20024;-53
2022/03/19 14:28:14;;;;;;;4.75;1.10;;;;;;;;;;5030234;28;20037;-57
2022/03/19 14:30:41;;;;;;;4.78;1.05;;;;;;;;;;5029037;28;20394;-55
2022/03/19 14:33:08;;;;;;;4.20;0.90;;;;;;;;;;5028827;28;20029;-57
2022/03/19 14:35:43;;;;;;;3.05;1.08;;;;;;;;;;5028791;28;20026;-55
2022/03/19 14:38:10;;;;;;;4.28;0.95;;;;;;;;;;5025603;28;20064;-57
2022/03/19 14:40:36;;;;;;;10.95;1.73;;;;;;;;;;5019934;28;20041;-58
2022/03/19 14:43:05;;;;;;;6.97;1.20;;;;;;;;;;5020426;28;21100;-58
2022/03/19 14:45:32;;;;;;;5.87;0.97;;;;;;;;;;5022263;28;20088;-58
2022/03/19 14:47:58;;;;;;;5.38;1.13;;;;;;;;;;5021793;28;20100;-57
2022/03/19 14:50:24;;;;;;;7.00;1.35;;;;;;;;;;5021821;28;20078;-61